This is the latest recevied weather packets stored in our database for station/object K4CRS-13. If no packets are shown the sender has not sent any weather packets the latest 10 day(s).
| Time | Temp. | Humidity | Pressure | Rain* | Wind** | Luminosity | Snow |
|---|---|---|---|---|---|---|---|
| 1787861642 | 31.11° C | 63% | 1050.3 hPa | 0 mm | - | 643 W/m² | - |
| 1787861339 | 31.11° C | 63% | 1050.1 hPa | 0 mm | - | 621 W/m² | - |
| 1787861035 | 31.11° C | 62% | 1050.3 hPa | 0 mm | - | 627 W/m² | - |
| 1787860734 | 30.56° C | 65% | 1050.2 hPa | 0 mm | - | 682 W/m² | - |
| 1787860429 | 30° C | 68% | 1050.3 hPa | 0 mm | - | 712 W/m² | - |
| 1787860129 | 30° C | 65% | 1050.5 hPa | 0 mm | - | 145 W/m² | - |
| 1787859825 | 31.11° C | 63% | 1050.3 hPa | 0 mm | - | 740 W/m² | - |
| 1787859525 | 30° C | 67% | 1050.5 hPa | 0 mm | - | 768 W/m² | - |
| 1787859219 | 30° C | 68% | 1050.3 hPa | 0 mm | - | 212 W/m² | - |
| 1787858916 | 29.44° C | 70% | 1050.5 hPa | 0 mm | - | 793 W/m² | - |
| 1787858611 | 30° C | 67% | 1050.3 hPa | 0 mm | - | 233 W/m² | - |
| 1787858306 | 30.56° C | 69% | 1050.4 hPa | 0 mm | - | 811 W/m² | - |
| 1787858001 | 30° C | 69% | 1050.4 hPa | 0 mm | - | 518 W/m² | - |
| 1787857697 | 30° C | 69% | 1050.5 hPa | 0 mm | - | 205 W/m² | - |
| 1787857393 | 29.44° C | 69% | 1050.5 hPa | 0 mm | - | 781 W/m² | - |
| 1787857090 | 29.44° C | 70% | 1050.5 hPa | 0 mm | - | 774 W/m² | - |
| 1787856786 | 30° C | 71% | 1050.3 hPa | 0 mm | - | 737 W/m² | - |
| 1787856480 | 30° C | 70% | 1050.4 hPa | 0 mm | - | 736 W/m² | - |
| 1787856176 | 29.44° C | 70% | 1050.4 hPa | 0 mm | - | 777 W/m² | - |
| 1787855875 | 28.89° C | 73% | 1050.4 hPa | 0 mm | - | 768 W/m² | - |
| 1787855571 | 29.44° C | 72% | 1050.5 hPa | 0 mm | - | 183 W/m² | - |
| 1787855266 | 30° C | 69% | 1050.5 hPa | 0 mm | - | 777 W/m² | - |
| 1787854962 | 29.44° C | 72% | 1050.4 hPa | 0 mm | - | 797 W/m² | - |
| 1787854657 | 29.44° C | 72% | 1050.6 hPa | 0 mm | - | 785 W/m² | - |
| 1787854356 | 29.44° C | 73% | 1050.6 hPa | 0 mm | - | 814 W/m² | - |
* Rain latest hour (hover to see other rain measurements)
** Current wind speed in m/s (hover to see current wind gust speed)